createdAt,value
2022-07-26T00:00:59.907Z,1006.63
2022-07-26T00:01:59.839Z,1006.57
2022-07-26T00:02:59.860Z,1006.59
2022-07-26T00:03:59.788Z,1006.49
2022-07-26T00:04:59.694Z,1006.42
2022-07-26T00:05:59.695Z,1006.44
2022-07-26T00:06:59.536Z,1006.39
2022-07-26T00:07:59.503Z,1006.47
2022-07-26T00:08:59.512Z,1006.45
2022-07-26T00:09:59.417Z,1006.41
2022-07-26T00:10:59.324Z,1006.46
2022-07-26T00:11:59.259Z,1006.50
2022-07-26T00:12:59.164Z,1006.50
2022-07-26T00:13:59.137Z,1006.45
2022-07-26T00:14:59.072Z,1006.46
2022-07-26T00:15:59.070Z,1006.33
2022-07-26T00:16:59.093Z,1006.28
2022-07-26T00:17:58.964Z,1006.27
2022-07-26T00:18:58.859Z,1006.23
2022-07-26T00:19:58.800Z,1006.27
2022-07-26T00:20:58.726Z,1006.31
2022-07-26T00:21:58.671Z,1006.27
2022-07-26T00:22:58.609Z,1006.29
2022-07-26T00:23:58.516Z,1006.29
2022-07-26T00:24:58.589Z,1006.28
2022-07-26T00:25:58.493Z,1006.32
2022-07-26T00:26:58.397Z,1006.31
2022-07-26T00:27:58.300Z,1006.31
2022-07-26T00:28:58.340Z,1006.36
2022-07-26T00:29:58.234Z,1006.35
2022-07-26T00:30:58.162Z,1006.36
2022-07-26T00:31:58.123Z,1006.40
2022-07-26T00:32:58.038Z,1006.39
2022-07-26T00:33:57.903Z,1006.42
2022-07-26T00:34:57.847Z,1006.44
2022-07-26T00:35:57.789Z,1006.45
2022-07-26T00:36:57.726Z,1006.44
2022-07-26T00:37:57.673Z,1006.36
2022-07-26T00:38:57.606Z,1006.30
2022-07-26T00:39:57.555Z,1006.29
2022-07-26T00:40:57.502Z,1006.30
2022-07-26T00:41:57.442Z,1006.30
2022-07-26T00:42:57.385Z,1006.33
2022-07-26T00:43:57.314Z,1006.39
2022-07-26T00:44:57.248Z,1006.45
2022-07-26T00:45:57.244Z,1006.47
2022-07-26T00:46:57.134Z,1006.53
2022-07-26T00:47:57.072Z,1006.59
2022-07-26T00:48:57.102Z,1006.64
2022-07-26T00:49:56.955Z,1006.62
2022-07-26T00:50:56.901Z,1006.64
2022-07-26T00:51:56.835Z,1006.59
2022-07-26T00:52:56.818Z,1006.58
2022-07-26T00:53:56.722Z,1006.57
2022-07-26T00:54:56.653Z,1006.48
2022-07-26T00:55:56.597Z,1006.51
2022-07-26T00:56:56.536Z,1006.49
2022-07-26T00:57:56.478Z,1006.42
2022-07-26T00:58:56.454Z,1006.44
2022-07-26T00:59:56.358Z,1006.41
2022-07-26T01:00:56.324Z,1006.43
2022-07-26T01:01:56.446Z,1006.43
2022-07-26T01:02:56.230Z,1006.46
2022-07-26T01:03:56.123Z,1006.51
2022-07-26T01:04:56.062Z,1006.49
2022-07-26T01:05:56.004Z,1006.53
2022-07-26T01:06:55.945Z,1006.54
2022-07-26T01:07:55.885Z,1006.54
2022-07-26T01:08:55.825Z,1006.47
2022-07-26T01:09:55.770Z,1006.46
2022-07-26T01:10:55.706Z,1006.43
2022-07-26T01:11:55.647Z,1006.40
2022-07-26T01:12:55.591Z,1006.42
2022-07-26T01:13:55.533Z,1006.40
2022-07-26T01:14:55.469Z,1006.39
2022-07-26T01:15:55.479Z,1006.40
2022-07-26T01:16:55.352Z,1006.47
2022-07-26T01:17:55.293Z,1006.49
2022-07-26T01:18:55.232Z,1006.48
2022-07-26T01:19:55.178Z,1006.53
2022-07-26T01:20:55.114Z,1006.57
2022-07-26T01:21:55.061Z,1006.59
2022-07-26T01:22:54.997Z,1006.59
2022-07-26T01:23:54.941Z,1006.61
2022-07-26T01:24:54.878Z,1006.60
2022-07-26T01:25:54.822Z,1006.61
2022-07-26T01:26:54.761Z,1006.62
2022-07-26T01:27:54.709Z,1006.64
2022-07-26T01:28:54.646Z,1006.67
2022-07-26T01:29:54.584Z,1006.68
2022-07-26T01:30:54.556Z,1006.66
2022-07-26T01:31:54.465Z,1006.68
2022-07-26T01:32:54.404Z,1006.74
2022-07-26T01:33:54.352Z,1006.75
2022-07-26T01:34:54.292Z,1006.74
2022-07-26T01:35:54.230Z,1006.72
2022-07-26T01:36:54.170Z,1006.75
2022-07-26T01:37:54.112Z,1006.72
2022-07-26T01:38:54.051Z,1006.65
2022-07-26T01:39:53.992Z,1006.65
2022-07-26T01:40:53.935Z,1006.63
2022-07-26T01:41:53.874Z,1006.60
2022-07-26T01:42:53.813Z,1006.64
2022-07-26T01:43:54.552Z,1006.67
2022-07-26T01:44:53.693Z,1006.75
2022-07-26T01:45:54.620Z,1006.72
2022-07-26T01:46:53.579Z,1006.71
2022-07-26T01:47:53.521Z,1006.70
2022-07-26T01:48:53.535Z,1006.74
2022-07-26T01:49:53.400Z,1006.75
2022-07-26T01:50:53.346Z,1006.71
2022-07-26T01:51:53.280Z,1006.65
2022-07-26T01:52:53.219Z,1006.69
2022-07-26T01:53:53.169Z,1006.65
2022-07-26T01:54:53.101Z,1006.61
2022-07-26T01:55:53.046Z,1006.57
2022-07-26T01:56:52.985Z,1006.60
2022-07-26T01:57:52.926Z,1006.62
2022-07-26T01:58:52.865Z,1006.66
2022-07-26T01:59:52.807Z,1006.68
2022-07-26T02:00:52.744Z,1006.76
2022-07-26T02:01:52.774Z,1006.80
2022-07-26T02:02:52.747Z,1006.78
2022-07-26T02:03:52.570Z,1006.76
2022-07-26T02:04:52.508Z,1006.78
2022-07-26T02:05:52.462Z,1006.83
2022-07-26T02:06:52.393Z,1006.85
2022-07-26T02:07:52.332Z,1006.88
2022-07-26T02:08:52.273Z,1006.92
2022-07-26T02:09:52.218Z,1006.92
2022-07-26T02:10:52.160Z,1006.89
2022-07-26T02:11:52.101Z,1006.87
2022-07-26T02:12:52.035Z,1006.83
2022-07-26T02:13:53.333Z,1006.91
2022-07-26T02:14:51.916Z,1006.85
2022-07-26T02:15:51.918Z,1006.86
2022-07-26T02:16:51.813Z,1006.85
2022-07-26T02:17:51.742Z,1006.88
2022-07-26T02:18:51.681Z,1006.84
2022-07-26T02:19:51.623Z,1006.87
2022-07-26T02:20:51.562Z,1006.85
2022-07-26T02:21:51.508Z,1006.84
2022-07-26T02:22:51.446Z,1006.88
2022-07-26T02:23:51.388Z,1006.90
2022-07-26T02:24:51.326Z,1006.97
2022-07-26T02:25:51.270Z,1006.96
2022-07-26T02:26:51.212Z,1006.94
2022-07-26T02:27:51.149Z,1006.91
2022-07-26T02:28:51.092Z,1006.88
2022-07-26T02:29:51.032Z,1006.89
2022-07-26T02:30:51.009Z,1006.86
2022-07-26T02:31:50.954Z,1006.86
2022-07-26T02:32:50.854Z,1006.85
2022-07-26T02:33:50.799Z,1006.82
2022-07-26T02:34:50.734Z,1006.79
2022-07-26T02:35:50.701Z,1006.80
2022-07-26T02:36:50.627Z,1006.80
2022-07-26T02:37:50.558Z,1006.78
2022-07-26T02:38:50.539Z,1006.78
2022-07-26T02:39:50.475Z,1006.82
2022-07-26T02:40:50.403Z,1006.81
2022-07-26T02:41:50.318Z,1006.79
2022-07-26T02:42:50.261Z,1006.78
2022-07-26T02:43:50.199Z,1006.76
2022-07-26T02:44:50.143Z,1006.76
2022-07-26T02:46:01.677Z,1006.75
2022-07-26T02:46:50.071Z,1006.70
2022-07-26T02:47:49.966Z,1006.74
2022-07-26T02:48:49.989Z,1006.69
2022-07-26T02:49:49.862Z,1006.69
2022-07-26T02:50:49.788Z,1006.65
2022-07-26T02:51:49.731Z,1006.69
2022-07-26T02:52:49.673Z,1006.70
2022-07-26T02:53:49.608Z,1006.69
2022-07-26T02:54:49.548Z,1006.67
2022-07-26T02:55:49.499Z,1006.67
2022-07-26T02:56:49.434Z,1006.62
2022-07-26T02:57:49.384Z,1006.69
2022-07-26T02:58:49.324Z,1006.69
2022-07-26T02:59:49.252Z,1006.68
2022-07-26T03:00:49.193Z,1006.67
2022-07-26T03:01:50.134Z,1006.72
2022-07-26T03:02:49.184Z,1006.70
2022-07-26T03:03:51.014Z,1006.69
2022-07-26T03:04:48.956Z,1006.71
2022-07-26T03:05:48.894Z,1006.73
2022-07-26T03:06:48.856Z,1006.74
2022-07-26T03:07:48.773Z,1006.74
2022-07-26T03:08:48.714Z,1006.73
2022-07-26T03:09:48.659Z,1006.74
2022-07-26T03:10:48.599Z,1006.77
2022-07-26T03:11:48.539Z,1006.81
2022-07-26T03:12:48.482Z,1006.77
2022-07-26T03:13:48.442Z,1006.81
2022-07-26T03:14:48.362Z,1006.81
2022-07-26T03:15:48.361Z,1006.79
2022-07-26T03:16:48.243Z,1006.81
2022-07-26T03:17:48.184Z,1006.78
2022-07-26T03:18:48.125Z,1006.80
2022-07-26T03:19:48.058Z,1006.70
2022-07-26T03:20:48.002Z,1006.77
2022-07-26T03:21:47.939Z,1006.73
2022-07-26T03:22:47.883Z,1006.72
2022-07-26T03:23:47.823Z,1006.72
2022-07-26T03:24:47.764Z,1006.74
2022-07-26T03:25:47.703Z,1006.74
2022-07-26T03:26:47.646Z,1006.71
2022-07-26T03:27:47.582Z,1006.71
2022-07-26T03:28:47.529Z,1006.72
2022-07-26T03:29:47.462Z,1006.74
2022-07-26T03:30:47.466Z,1006.73
2022-07-26T03:31:47.344Z,1006.73
2022-07-26T03:32:47.287Z,1006.76
2022-07-26T03:33:48.094Z,1006.79
2022-07-26T03:34:47.170Z,1006.79
2022-07-26T03:35:47.107Z,1006.76
2022-07-26T03:36:47.049Z,1006.76
2022-07-26T03:37:46.992Z,1006.73
2022-07-26T03:38:46.928Z,1006.78
2022-07-26T03:39:46.869Z,1006.78
2022-07-26T03:40:46.811Z,1006.81
2022-07-26T03:41:46.751Z,1006.81
2022-07-26T03:42:46.711Z,1006.81
2022-07-26T03:43:46.633Z,1006.81
2022-07-26T03:44:46.571Z,1006.85
2022-07-26T03:45:46.581Z,1006.82
2022-07-26T03:46:46.582Z,1006.80
2022-07-26T03:47:46.392Z,1006.80
2022-07-26T03:48:46.363Z,1006.77
2022-07-26T03:49:46.270Z,1006.79
2022-07-26T03:50:46.222Z,1006.83
2022-07-26T03:51:46.152Z,1006.79
2022-07-26T03:52:46.094Z,1006.78
2022-07-26T03:53:46.032Z,1006.78
2022-07-26T03:54:45.993Z,1006.82
2022-07-26T03:55:45.938Z,1006.81
2022-07-26T03:56:45.859Z,1006.78
2022-07-26T03:57:45.797Z,1006.81
2022-07-26T03:58:45.741Z,1006.89
2022-07-26T03:59:45.678Z,1006.83
2022-07-26T04:00:45.653Z,1006.86
2022-07-26T04:01:45.633Z,1006.87
2022-07-26T04:02:45.532Z,1006.87
2022-07-26T04:03:47.769Z,1006.89
2022-07-26T04:04:45.381Z,1006.86
2022-07-26T04:05:48.943Z,1006.85
2022-07-26T04:06:45.288Z,1006.83
2022-07-26T04:07:52.440Z,1006.86
2022-07-26T04:08:45.140Z,1006.87
2022-07-26T04:09:45.078Z,1006.89
2022-07-26T04:10:45.022Z,1006.90
2022-07-26T04:11:44.963Z,1006.90
2022-07-26T04:12:44.901Z,1006.89
2022-07-26T04:13:44.840Z,1006.87
2022-07-26T04:14:44.783Z,1006.87
2022-07-26T04:15:44.720Z,1006.88
2022-07-26T04:16:44.687Z,1006.90
2022-07-26T04:17:44.607Z,1006.89
2022-07-26T04:18:44.543Z,1006.87
2022-07-26T04:19:44.489Z,1006.87
2022-07-26T04:20:44.448Z,1006.88
2022-07-26T04:21:44.365Z,1006.89
2022-07-26T04:22:44.308Z,1006.90
2022-07-26T04:23:49.212Z,1006.92
2022-07-26T04:24:44.188Z,1006.90
2022-07-26T04:25:44.134Z,1006.91
2022-07-26T04:26:44.070Z,1006.89
2022-07-26T04:27:44.012Z,1006.94
2022-07-26T04:28:44.017Z,1006.92
2022-07-26T04:29:43.909Z,1006.92
2022-07-26T04:30:43.903Z,1006.91
2022-07-26T04:31:43.793Z,1006.90
2022-07-26T04:32:43.727Z,1006.91
2022-07-26T04:33:43.659Z,1006.85
2022-07-26T04:34:43.629Z,1006.87
2022-07-26T04:35:43.536Z,1006.89
2022-07-26T04:36:43.476Z,1006.89
2022-07-26T04:37:43.421Z,1006.87
2022-07-26T04:38:43.352Z,1006.88
2022-07-26T04:39:43.290Z,1006.92
2022-07-26T04:40:43.254Z,1006.92
2022-07-26T04:41:43.173Z,1006.94
2022-07-26T04:42:43.121Z,1006.88
2022-07-26T04:43:43.071Z,1006.88
2022-07-26T04:44:42.995Z,1006.89
2022-07-26T04:45:43.013Z,1006.88
2022-07-26T04:46:45.193Z,1006.85
2022-07-26T04:47:42.817Z,1006.89
2022-07-26T04:48:42.815Z,1006.90
2022-07-26T04:49:42.699Z,1006.90
2022-07-26T04:50:42.642Z,1006.91
2022-07-26T04:51:42.582Z,1006.89
2022-07-26T04:52:42.523Z,1006.90
2022-07-26T04:53:42.513Z,1006.87
2022-07-26T04:54:42.427Z,1006.93
2022-07-26T04:55:42.369Z,1006.96
2022-07-26T04:56:42.297Z,1006.96
2022-07-26T04:57:42.238Z,1006.95
2022-07-26T04:58:42.218Z,1006.98
2022-07-26T04:59:42.104Z,1007.00
2022-07-26T05:01:10.769Z,1007.00
2022-07-26T05:01:42.040Z,1006.98
2022-07-26T05:02:41.997Z,1007.00
2022-07-26T05:03:41.868Z,1007.00
2022-07-26T05:04:41.829Z,1006.94
2022-07-26T05:05:41.755Z,1006.95
2022-07-26T05:06:41.696Z,1006.97
2022-07-26T05:07:41.646Z,1006.96
2022-07-26T05:08:41.588Z,1007.00
2022-07-26T05:09:41.511Z,1006.99
2022-07-26T05:10:44.129Z,1007.02
2022-07-26T05:11:41.391Z,1007.00
2022-07-26T05:12:41.335Z,1007.02
2022-07-26T05:13:41.308Z,1007.06
2022-07-26T05:14:41.242Z,1007.09
2022-07-26T05:15:42.778Z,1007.09
2022-07-26T05:16:44.423Z,1007.14
2022-07-26T05:17:41.057Z,1007.13
2022-07-26T05:18:45.522Z,1007.11
2022-07-26T05:19:43.774Z,1007.10
2022-07-26T05:20:40.900Z,1007.12
2022-07-26T05:21:41.037Z,1007.13
2022-07-26T05:22:40.778Z,1007.11
2022-07-26T05:23:40.711Z,1007.11
2022-07-26T05:24:40.628Z,1007.13
2022-07-26T05:25:40.567Z,1007.18
2022-07-26T05:26:40.530Z,1007.15
2022-07-26T05:27:40.491Z,1007.17
2022-07-26T05:28:40.407Z,1007.19
2022-07-26T05:29:40.377Z,1007.20
2022-07-26T05:30:40.367Z,1007.21
2022-07-26T05:31:40.230Z,1007.23
2022-07-26T05:32:40.174Z,1007.28
2022-07-26T05:33:40.120Z,1007.29
2022-07-26T05:34:40.048Z,1007.26
2022-07-26T05:35:39.975Z,1007.32
2022-07-26T05:36:39.949Z,1007.34
2022-07-26T05:37:39.887Z,1007.35
2022-07-26T05:38:39.818Z,1007.35
2022-07-26T05:39:39.775Z,1007.33
2022-07-26T05:40:39.689Z,1007.34
2022-07-26T05:41:39.631Z,1007.37
2022-07-26T05:42:39.583Z,1007.38
2022-07-26T05:43:41.806Z,1007.39
2022-07-26T05:44:42.530Z,1007.36
2022-07-26T05:45:39.483Z,1007.40
2022-07-26T05:46:39.370Z,1007.42
2022-07-26T05:47:39.290Z,1007.42
2022-07-26T05:48:39.304Z,1007.44
2022-07-26T05:49:40.340Z,1007.44
2022-07-26T05:50:39.123Z,1007.46
2022-07-26T05:51:39.046Z,1007.46
2022-07-26T05:52:39.005Z,1007.47
2022-07-26T05:53:38.948Z,1007.46
2022-07-26T05:54:38.884Z,1007.47
2022-07-26T05:55:38.826Z,1007.47
2022-07-26T05:56:38.785Z,1007.48
2022-07-26T05:57:39.729Z,1007.49
2022-07-26T05:58:38.652Z,1007.48
2022-07-26T05:59:38.581Z,1007.50
2022-07-26T06:00:38.573Z,1007.44
2022-07-26T06:01:38.468Z,1007.47
2022-07-26T06:02:38.492Z,1007.48
2022-07-26T06:03:38.412Z,1007.47
2022-07-26T06:04:38.443Z,1007.51
2022-07-26T06:05:38.244Z,1007.48
2022-07-26T06:06:38.186Z,1007.44
2022-07-26T06:07:38.156Z,1007.45
2022-07-26T06:08:38.090Z,1007.49
2022-07-26T06:09:38.048Z,1007.46
2022-07-26T06:10:37.971Z,1007.45
2022-07-26T06:11:37.920Z,1007.51
2022-07-26T06:12:37.842Z,1007.51
2022-07-26T06:13:37.794Z,1007.54
2022-07-26T06:14:37.730Z,1007.56
2022-07-26T06:15:37.668Z,1007.56
2022-07-26T06:16:37.718Z,1007.57
2022-07-26T06:17:37.583Z,1007.55
2022-07-26T06:18:37.500Z,1007.60
2022-07-26T06:19:37.455Z,1007.54
2022-07-26T06:20:37.450Z,1007.59
2022-07-26T06:21:37.328Z,1007.60
2022-07-26T06:22:37.279Z,1007.60
2022-07-26T06:23:37.224Z,1007.60
2022-07-26T06:24:37.175Z,1007.63
2022-07-26T06:25:37.105Z,1007.55
2022-07-26T06:26:37.084Z,1007.60
2022-07-26T06:27:37.002Z,1007.61
2022-07-26T06:28:36.955Z,1007.59
2022-07-26T06:29:36.887Z,1007.57
2022-07-26T06:30:36.886Z,1007.60
2022-07-26T06:31:36.816Z,1007.68
2022-07-26T06:32:36.722Z,1007.63
2022-07-26T06:33:36.651Z,1007.64
2022-07-26T06:34:36.602Z,1007.64
2022-07-26T06:35:36.547Z,1007.66
2022-07-26T06:36:36.521Z,1007.60
2022-07-26T06:37:36.428Z,1007.62
2022-07-26T06:38:36.394Z,1007.65
2022-07-26T06:39:36.334Z,1007.62
2022-07-26T06:40:36.263Z,1007.65
2022-07-26T06:41:36.201Z,1007.59
2022-07-26T06:42:36.144Z,1007.63
2022-07-26T06:43:36.119Z,1007.65
2022-07-26T06:44:36.028Z,1007.66
2022-07-26T06:45:36.031Z,1007.63
2022-07-26T06:46:35.961Z,1007.74
2022-07-26T06:47:35.873Z,1007.66
2022-07-26T06:48:35.835Z,1007.72
2022-07-26T06:49:35.935Z,1007.67
2022-07-26T06:50:35.692Z,1007.73
2022-07-26T06:51:35.640Z,1007.76
2022-07-26T06:52:35.602Z,1007.73
2022-07-26T06:53:35.519Z,1007.71
2022-07-26T06:54:35.508Z,1007.71
2022-07-26T06:55:35.468Z,1007.73
2022-07-26T06:56:35.375Z,1007.75
2022-07-26T06:57:44.896Z,1007.76
2022-07-26T06:58:35.242Z,1007.77
2022-07-26T06:59:35.194Z,1007.77
2022-07-26T07:00:35.122Z,1007.78
2022-07-26T07:01:58.223Z,1007.78
2022-07-26T07:02:35.027Z,1007.79
2022-07-26T07:03:34.975Z,1007.77
2022-07-26T07:04:34.917Z,1007.74
2022-07-26T07:05:34.865Z,1007.74
2022-07-26T07:06:34.811Z,1007.78
2022-07-26T07:07:34.750Z,1007.82
2022-07-26T07:08:34.671Z,1007.80
2022-07-26T07:09:34.996Z,1007.80
2022-07-26T07:10:34.653Z,1007.81
2022-07-26T07:11:34.511Z,1007.88
2022-07-26T07:12:34.478Z,1007.86
2022-07-26T07:13:34.401Z,1007.92
2022-07-26T07:14:34.331Z,1007.88
2022-07-26T07:15:34.300Z,1007.88
2022-07-26T07:16:34.274Z,1007.86
2022-07-26T07:17:34.174Z,1007.91
2022-07-26T07:18:34.125Z,1007.88
2022-07-26T07:19:34.054Z,1007.90
2022-07-26T07:20:33.992Z,1007.84
2022-07-26T07:21:33.953Z,1007.89
2022-07-26T07:22:33.974Z,1007.91
2022-07-26T07:23:33.820Z,1007.87
2022-07-26T07:24:33.767Z,1007.90
2022-07-26T07:25:33.706Z,1007.93
2022-07-26T07:26:33.679Z,1007.90
2022-07-26T07:27:33.630Z,1007.90
2022-07-26T07:28:33.535Z,1007.92
2022-07-26T07:29:33.528Z,1007.92
2022-07-26T07:30:33.429Z,1007.88
2022-07-26T07:31:49.044Z,1007.93
2022-07-26T07:32:33.384Z,1007.91
2022-07-26T07:33:43.649Z,1007.89
2022-07-26T07:34:33.200Z,1007.79
2022-07-26T07:35:33.140Z,1007.79
2022-07-26T07:36:33.095Z,1007.89
2022-07-26T07:37:52.344Z,1007.95
2022-07-26T07:38:32.971Z,1007.94
2022-07-26T07:39:34.987Z,1007.92
2022-07-26T07:40:32.875Z,1007.89
2022-07-26T07:41:32.835Z,1007.91
2022-07-26T07:42:32.745Z,1007.97
2022-07-26T07:43:32.702Z,1007.95
2022-07-26T07:44:32.657Z,1007.90
2022-07-26T07:45:32.577Z,1007.93
2022-07-26T07:46:32.582Z,1007.94
2022-07-26T07:47:32.487Z,1007.94
2022-07-26T07:48:32.450Z,1008.00
2022-07-26T07:49:32.483Z,1008.00
2022-07-26T07:50:32.298Z,1007.93
2022-07-26T07:51:32.255Z,1007.92
2022-07-26T07:52:32.196Z,1007.95
2022-07-26T07:53:32.126Z,1007.92
2022-07-26T07:54:32.069Z,1007.94
2022-07-26T07:55:41.335Z,1007.94
2022-07-26T07:56:31.960Z,1007.93
2022-07-26T07:57:31.916Z,1007.91
2022-07-26T07:58:31.847Z,1007.84
2022-07-26T07:59:31.823Z,1007.93
2022-07-26T08:00:31.756Z,1007.89
2022-07-26T08:01:40.337Z,1007.89
2022-07-26T08:02:31.653Z,1007.87
2022-07-26T08:03:38.525Z,1007.92
2022-07-26T08:04:31.583Z,1007.89
2022-07-26T08:05:31.461Z,1007.86
2022-07-26T08:06:31.397Z,1007.90
2022-07-26T08:07:32.947Z,1007.85
2022-07-26T08:08:31.288Z,1007.89
2022-07-26T08:09:33.856Z,1007.92
2022-07-26T08:10:31.169Z,1007.87
2022-07-26T08:11:31.160Z,1007.86
2022-07-26T08:12:31.071Z,1007.81
2022-07-26T08:13:31.059Z,1007.84
2022-07-26T08:14:30.969Z,1007.85
2022-07-26T08:15:30.954Z,1007.86
2022-07-26T08:16:30.921Z,1007.84
2022-07-26T08:17:30.798Z,1007.83
2022-07-26T08:18:30.741Z,1007.89
2022-07-26T08:19:41.443Z,1007.86
2022-07-26T08:20:30.649Z,1007.88
2022-07-26T08:21:30.593Z,1007.90
2022-07-26T08:22:30.505Z,1007.85
2022-07-26T08:23:30.432Z,1007.92
2022-07-26T08:24:30.374Z,1007.87
2022-07-26T08:25:30.367Z,1007.87
2022-07-26T08:26:30.257Z,1007.92
2022-07-26T08:27:30.213Z,1007.89
2022-07-26T08:28:46.692Z,1007.95
2022-07-26T08:29:30.086Z,1007.95
2022-07-26T08:30:30.032Z,1007.93
2022-07-26T08:31:30.071Z,1007.94
2022-07-26T08:32:29.958Z,1007.98
2022-07-26T08:33:29.862Z,1007.92
2022-07-26T08:34:30.358Z,1007.94
2022-07-26T08:35:33.045Z,1007.88
2022-07-26T08:36:32.686Z,1007.91
2022-07-26T08:37:29.679Z,1008.01
2022-07-26T08:38:29.760Z,1008.02
2022-07-26T08:39:29.579Z,1007.97
2022-07-26T08:40:29.483Z,1007.93
2022-07-26T08:41:29.405Z,1007.99
2022-07-26T08:42:29.392Z,1007.99
2022-07-26T08:43:29.292Z,1007.94
2022-07-26T08:44:29.313Z,1007.95
2022-07-26T08:45:29.221Z,1007.97
2022-07-26T08:46:29.156Z,1007.97
2022-07-26T08:47:37.965Z,1007.99
2022-07-26T08:48:29.054Z,1008.01
2022-07-26T08:49:29.010Z,1008.05
2022-07-26T08:50:28.900Z,1008.01
2022-07-26T08:51:31.078Z,1008.04
2022-07-26T08:52:31.102Z,1008.03
2022-07-26T08:53:29.587Z,1008.08
2022-07-26T08:54:28.754Z,1008.11
2022-07-26T08:55:32.314Z,1008.15
2022-07-26T08:56:28.748Z,1008.18
2022-07-26T08:57:28.650Z,1008.16
2022-07-26T08:58:28.561Z,1008.14
2022-07-26T08:59:28.489Z,1008.21
2022-07-26T09:00:28.415Z,1008.16
2022-07-26T09:01:28.469Z,1008.18
2022-07-26T09:02:28.371Z,1008.16
2022-07-26T09:03:28.418Z,1008.16
2022-07-26T09:04:32.167Z,1008.14
2022-07-26T09:05:28.184Z,1008.15
2022-07-26T09:06:28.402Z,1008.15
2022-07-26T09:07:28.095Z,1008.15
2022-07-26T09:08:28.758Z,1008.18
2022-07-26T09:09:28.039Z,1008.16
2022-07-26T09:10:28.052Z,1008.18
2022-07-26T09:11:27.851Z,1008.20
2022-07-26T09:12:28.219Z,1008.16
2022-07-26T09:13:28.073Z,1008.16
2022-07-26T09:14:28.284Z,1008.14
2022-07-26T09:15:27.981Z,1008.15
2022-07-26T09:16:27.811Z,1008.17
2022-07-26T09:17:27.989Z,1008.17
2022-07-26T09:18:27.892Z,1008.14
2022-07-26T09:19:27.595Z,1008.19
2022-07-26T09:20:28.542Z,1008.17
2022-07-26T09:21:27.283Z,1008.24
2022-07-26T09:22:27.198Z,1008.18
2022-07-26T09:23:29.354Z,1008.24
2022-07-26T09:24:27.096Z,1008.22
2022-07-26T09:25:27.014Z,1008.23
2022-07-26T09:26:27.072Z,1008.26
2022-07-26T09:27:28.344Z,1008.20
2022-07-26T09:28:26.907Z,1008.19
2022-07-26T09:29:26.913Z,1008.21
2022-07-26T09:30:26.734Z,1008.22
2022-07-26T09:31:26.770Z,1008.24
2022-07-26T09:32:26.808Z,1008.20
2022-07-26T09:33:26.794Z,1008.23
2022-07-26T09:34:26.535Z,1008.21
2022-07-26T09:36:26.453Z,1008.23
2022-07-26T09:37:26.371Z,1008.25
2022-07-26T09:38:26.358Z,1008.27
2022-07-26T09:39:33.932Z,1008.20
2022-07-26T09:40:26.189Z,1008.22
2022-07-26T09:41:26.266Z,1008.12
2022-07-26T09:42:29.053Z,1008.20
2022-07-26T09:43:26.001Z,1008.16
2022-07-26T09:44:25.983Z,1008.21
2022-07-26T09:45:25.906Z,1008.21
2022-07-26T09:46:26.060Z,1008.20
2022-07-26T09:47:25.884Z,1008.21
2022-07-26T09:48:25.721Z,1008.19
2022-07-26T09:49:30.917Z,1008.20
2022-07-26T09:50:25.663Z,1008.17
2022-07-26T09:51:25.608Z,1008.17
2022-07-26T09:52:25.517Z,1008.20
2022-07-26T09:53:25.446Z,1008.22
2022-07-26T09:54:25.355Z,1008.22
2022-07-26T09:55:25.362Z,1008.28
2022-07-26T09:56:25.340Z,1008.23
2022-07-26T09:57:25.245Z,1008.25
2022-07-26T09:58:25.171Z,1008.24
2022-07-26T09:59:25.167Z,1008.31
2022-07-26T10:00:25.091Z,1008.32
2022-07-26T10:01:25.117Z,1008.26
2022-07-26T10:02:25.005Z,1008.31
2022-07-26T10:03:24.893Z,1008.38
2022-07-26T10:04:24.874Z,1008.36
2022-07-26T10:05:24.803Z,1008.37
2022-07-26T10:06:30.066Z,1008.36
2022-07-26T10:07:24.688Z,1008.33
2022-07-26T10:08:24.619Z,1008.30
2022-07-26T10:09:24.595Z,1008.33
2022-07-26T10:10:24.509Z,1008.32
2022-07-26T10:11:24.510Z,1008.32
2022-07-26T10:12:30.072Z,1008.29
2022-07-26T10:13:24.407Z,1008.33
2022-07-26T10:14:24.323Z,1008.32
2022-07-26T10:15:24.224Z,1008.35
2022-07-26T10:16:24.219Z,1008.33
2022-07-26T10:17:29.062Z,1008.31
2022-07-26T10:18:24.065Z,1008.28
2022-07-26T10:19:24.053Z,1008.29
2022-07-26T10:20:24.714Z,1008.30
2022-07-26T10:21:23.884Z,1008.27
2022-07-26T10:22:23.877Z,1008.31
2022-07-26T10:23:23.788Z,1008.28
2022-07-26T10:24:23.765Z,1008.30
2022-07-26T10:25:24.015Z,1008.26
2022-07-26T10:26:23.602Z,1008.25
2022-07-26T10:27:23.577Z,1008.24
2022-07-26T10:28:23.593Z,1008.28
2022-07-26T10:29:23.504Z,1008.30
2022-07-26T10:30:23.641Z,1008.29
2022-07-26T10:31:23.498Z,1008.23
2022-07-26T10:32:23.444Z,1008.26
2022-07-26T10:33:23.243Z,1008.27
2022-07-26T10:34:23.359Z,1008.25
2022-07-26T10:35:23.128Z,1008.26
2022-07-26T10:36:23.193Z,1008.23
2022-07-26T10:37:23.298Z,1008.29
2022-07-26T10:38:22.971Z,1008.18
2022-07-26T10:39:23.010Z,1008.26
2022-07-26T10:40:22.944Z,1008.22
2022-07-26T10:41:22.989Z,1008.31
2022-07-26T10:42:22.886Z,1008.27
2022-07-26T10:43:40.288Z,1008.28
2022-07-26T10:44:22.897Z,1008.27
2022-07-26T10:45:22.924Z,1008.25
2022-07-26T10:46:22.759Z,1008.27
2022-07-26T10:47:22.714Z,1008.20
2022-07-26T10:48:22.377Z,1008.29
2022-07-26T10:49:22.369Z,1008.23
2022-07-26T10:50:22.298Z,1008.24
2022-07-26T10:51:22.224Z,1008.26
2022-07-26T10:52:22.852Z,1008.21
2022-07-26T10:53:22.130Z,1008.23
2022-07-26T10:54:22.033Z,1008.25
2022-07-26T10:55:22.033Z,1008.23
2022-07-26T10:56:21.923Z,1008.24
2022-07-26T10:57:21.948Z,1008.23
2022-07-26T10:58:21.838Z,1008.31
2022-07-26T10:59:45.798Z,1008.28
2022-07-26T11:00:21.741Z,1008.27
2022-07-26T11:01:21.688Z,1008.28
2022-07-26T11:02:21.692Z,1008.30
2022-07-26T11:03:21.630Z,1008.32
2022-07-26T11:04:21.483Z,1008.34
2022-07-26T11:05:21.463Z,1008.31
2022-07-26T11:06:21.397Z,1008.27
2022-07-26T11:07:21.486Z,1008.22
2022-07-26T11:08:21.303Z,1008.19
2022-07-26T11:09:21.499Z,1008.19
2022-07-26T11:10:21.197Z,1008.18
2022-07-26T11:11:21.115Z,1008.23
2022-07-26T11:12:21.111Z,1008.17
2022-07-26T11:13:21.018Z,1008.21
2022-07-26T11:14:21.015Z,1008.21
2022-07-26T11:15:20.938Z,1008.14
2022-07-26T11:16:20.877Z,1008.12
2022-07-26T11:17:20.832Z,1008.15
2022-07-26T11:18:20.744Z,1008.11
2022-07-26T11:19:20.752Z,1008.12
2022-07-26T11:20:20.660Z,1008.08
2022-07-26T11:21:20.560Z,1008.11
2022-07-26T11:22:20.567Z,1008.08
2022-07-26T11:23:20.455Z,1008.16
2022-07-26T11:24:20.381Z,1008.13
2022-07-26T11:25:20.446Z,1008.11
2022-07-26T11:26:20.356Z,1008.10
2022-07-26T11:27:20.267Z,1008.14
2022-07-26T11:28:20.173Z,1008.18
2022-07-26T11:29:20.100Z,1008.14
2022-07-26T11:30:20.184Z,1008.24
2022-07-26T11:31:20.311Z,1008.23
2022-07-26T11:32:20.465Z,1008.24
2022-07-26T11:33:19.986Z,1008.32
2022-07-26T11:34:19.901Z,1008.32
2022-07-26T11:35:19.811Z,1008.32
2022-07-26T11:36:19.819Z,1008.33
2022-07-26T11:37:19.717Z,1008.34
2022-07-26T11:38:19.821Z,1008.32
2022-07-26T11:39:19.637Z,1008.34
2022-07-26T11:40:19.550Z,1008.40
2022-07-26T11:41:19.455Z,1008.34
2022-07-26T11:42:19.521Z,1008.32
2022-07-26T11:43:19.356Z,1008.31
2022-07-26T11:44:19.277Z,1008.34
2022-07-26T11:45:19.346Z,1008.31
2022-07-26T11:46:19.267Z,1008.32
2022-07-26T11:47:19.189Z,1008.28
2022-07-26T11:48:19.060Z,1008.35
2022-07-26T11:49:19.119Z,1008.36
2022-07-26T11:50:22.909Z,1008.38
2022-07-26T11:51:18.905Z,1008.37
2022-07-26T11:52:24.412Z,1008.39
2022-07-26T11:53:18.790Z,1008.40
2022-07-26T11:54:18.722Z,1008.41
2022-07-26T11:55:18.705Z,1008.39
2022-07-26T11:56:18.727Z,1008.37
2022-07-26T11:57:20.327Z,1008.35
2022-07-26T11:58:18.696Z,1008.36
2022-07-26T11:59:18.445Z,1008.34
2022-07-26T12:00:18.437Z,1008.36
2022-07-26T12:01:18.335Z,1008.41
2022-07-26T12:02:18.324Z,1008.46
2022-07-26T12:03:18.329Z,1008.39
2022-07-26T12:04:18.343Z,1008.40
2022-07-26T12:05:18.852Z,1008.44
2022-07-26T12:06:18.053Z,1008.38